createdAt,value
2022-12-19T14:23:36.995Z,101231.69
2022-12-19T14:28:16.786Z,101227.66
2022-12-19T14:29:06.428Z,101236.97
2022-12-19T14:31:35.793Z,101229.59
2022-12-19T14:34:35.680Z,101214.66
2022-12-19T14:36:54.051Z,101210.97
2022-12-19T14:39:33.284Z,101212.00
2022-12-19T14:43:57.549Z,101228.84
2022-12-19T14:54:06.845Z,101208.19
2022-12-19T14:54:11.398Z,101218.19
2022-12-19T14:54:21.438Z,101219.56
2022-12-19T14:57:29.155Z,101209.16
2022-12-19T15:00:50.944Z,101221.94
2022-12-19T15:03:18.773Z,101226.16
2022-12-19T15:05:46.857Z,101213.81
2022-12-19T15:08:14.822Z,101216.25
2022-12-19T15:11:08.134Z,101207.28
2022-12-19T15:14:56.506Z,101195.84
2022-12-19T15:16:26.538Z,101191.25
2022-12-19T15:18:57.032Z,101187.63
2022-12-19T15:21:25.071Z,101186.59
2022-12-19T15:23:52.854Z,101185.53
2022-12-19T15:26:22.143Z,101195.03
2022-12-19T15:28:52.387Z,101199.25
2022-12-19T15:31:29.880Z,101200.09
2022-12-19T15:36:45.839Z,101200.84
2022-12-19T15:39:15.057Z,101205.25
2022-12-19T15:41:43.122Z,101205.09
2022-12-19T15:44:17.241Z,101219.09
2022-12-19T15:46:48.971Z,101220.88
2022-12-19T15:49:17.956Z,101222.47
2022-12-19T15:51:45.757Z,101228.56
2022-12-19T15:57:01.785Z,101236.19
2022-12-19T15:59:37.723Z,101247.53
2022-12-19T16:02:16.870Z,101240.56
2022-12-19T16:04:45.055Z,101243.19
2022-12-19T16:07:15.774Z,101243.97
2022-12-19T16:09:43.588Z,101250.91
2022-12-19T16:12:15.315Z,101270.06
2022-12-19T16:14:44.832Z,101271.84
2022-12-19T16:17:16.412Z,101272.78
2022-12-19T16:19:45.491Z,101270.91
2022-12-19T16:22:18.125Z,101270.91
2022-12-19T16:24:45.872Z,101257.84
2022-12-19T16:27:19.703Z,101271.84
2022-12-19T16:29:48.924Z,101271.94
2022-12-19T16:32:16.743Z,101259.63
2022-12-19T16:34:44.567Z,101244.81
2022-12-19T16:37:12.944Z,101240.41
2022-12-19T16:39:40.702Z,101239.56
2022-12-19T16:42:15.071Z,101228.22
2022-12-19T16:44:43.714Z,101222.94
2022-12-19T16:47:15.042Z,101223.78
2022-12-19T16:49:42.842Z,101223.03
2022-12-19T16:52:10.568Z,101224.63
2022-12-19T16:54:38.358Z,101230.84
2022-12-19T16:57:07.208Z,101242.09
2022-12-19T16:59:37.498Z,101240.41
2022-12-19T17:02:28.409Z,101229.88
2022-12-19T17:04:56.664Z,101241.25
2022-12-19T17:07:24.431Z,101237.69
2022-12-19T17:09:52.177Z,101240.31
2022-12-19T17:13:34.466Z,101265.38
2022-12-19T17:16:02.566Z,101262.75
2022-12-19T17:18:33.429Z,101255.72
2022-12-19T17:21:01.603Z,101236.47
2022-12-19T17:23:32.441Z,101241.72
2022-12-19T17:26:01.031Z,101234.69
2022-12-19T17:28:29.881Z,101226.91
2022-12-19T17:31:00.880Z,101241.00
2022-12-19T17:33:33.947Z,101233.09
2022-12-19T17:36:01.749Z,101229.69
2022-12-19T17:38:29.663Z,101233.94
2022-12-19T17:40:57.392Z,101235.78
2022-12-19T17:43:25.163Z,101229.78
2022-12-19T17:45:53.084Z,101222.84
2022-12-19T17:48:27.635Z,101223.78
2022-12-19T17:50:55.989Z,101219.38
2022-12-19T17:53:23.915Z,101228.94
2022-12-19T17:55:51.937Z,101241.91
2022-12-19T17:58:19.812Z,101235.78
2022-12-19T18:00:48.275Z,101249.63
2022-12-19T18:03:22.258Z,101245.13
2022-12-19T18:05:54.794Z,101247.63
2022-12-19T18:08:25.745Z,101242.28
2022-12-19T18:10:53.573Z,101247.38
2022-12-19T18:13:21.588Z,101251.50
2022-12-19T18:15:49.462Z,101256.59
2022-12-19T18:18:20.653Z,101243.25
2022-12-19T18:20:48.485Z,101234.31
2022-12-19T18:23:19.780Z,101238.72
2022-12-19T18:25:47.939Z,101251.66
2022-12-19T18:28:16.679Z,101248.78
2022-12-19T18:30:44.781Z,101232.81
2022-12-19T18:33:16.929Z,101234.59
2022-12-19T18:35:47.782Z,101229.06
2022-12-19T18:38:17.037Z,101221.19
2022-12-19T18:40:46.719Z,101227.19
2022-12-19T18:43:14.842Z,101220.22
2022-12-19T18:45:44.311Z,101221.81
2022-12-19T18:48:17.411Z,101229.59
2022-12-19T18:50:45.388Z,101218.16
2022-12-19T18:53:13.840Z,101221.56
2022-12-19T18:55:41.606Z,101226.81
2022-12-19T18:58:10.911Z,101226.81
2022-12-19T19:00:39.214Z,101228.41
2022-12-19T19:03:11.668Z,101238.06
2022-12-19T19:05:40.444Z,101248.50
2022-12-19T19:08:16.299Z,101248.41
2022-12-19T19:10:44.171Z,101240.34
2022-12-19T19:13:13.984Z,101226.25
2022-12-19T19:15:46.589Z,101242.66
2022-12-19T19:18:15.802Z,101235.56
2022-12-19T19:20:44.813Z,101240.72
2022-12-19T19:23:13.567Z,101241.25
2022-12-19T19:25:41.770Z,101236.88
2022-12-19T19:28:10.468Z,101235.81
2022-12-19T19:30:40.616Z,101235.72
2022-12-19T19:33:11.244Z,101239.19
2022-12-19T19:35:39.583Z,101225.09
2022-12-19T19:38:08.716Z,101231.13
2022-12-19T19:40:37.080Z,101224.09
2022-12-19T19:43:05.456Z,101220.59
2022-12-19T19:45:36.830Z,101232.03
2022-12-19T19:48:10.483Z,101219.84
2022-12-19T19:50:38.148Z,101228.31
2022-12-19T19:53:06.018Z,101238.63
2022-12-19T19:55:33.728Z,101237.66
2022-12-19T19:58:01.508Z,101228.94
2022-12-19T20:00:29.170Z,101232.34
2022-12-19T20:02:57.014Z,101240.97
2022-12-19T20:05:26.240Z,101244.44
2022-12-19T20:07:53.976Z,101265.41
2022-12-19T20:10:21.703Z,101250.34
2022-12-19T20:12:49.354Z,101252.13
2022-12-19T20:15:17.143Z,101246.88
2022-12-19T20:17:44.838Z,101260.97
2022-12-19T20:20:13.356Z,101270.66
2022-12-19T20:22:42.541Z,101273.19
2022-12-19T20:25:10.257Z,101255.72
2022-12-19T20:27:38.074Z,101259.28
2022-12-19T20:30:06.928Z,101255.72
2022-12-19T20:32:34.667Z,101258.19
2022-12-19T20:35:02.404Z,101252.97
2022-12-19T20:37:30.408Z,101255.72
2022-12-19T20:39:59.557Z,101255.72
2022-12-19T20:42:27.237Z,101265.31
2022-12-19T20:44:54.953Z,101273.97
2022-12-19T20:47:24.472Z,101268.72
2022-12-19T20:49:52.215Z,101274.81
2022-12-19T20:52:20.163Z,101271.13
2022-12-19T20:54:47.867Z,101283.34
2022-12-19T20:57:17.070Z,101276.41
2022-12-19T20:59:44.725Z,101279.88
2022-12-19T21:02:12.683Z,101268.59
2022-12-19T21:04:40.903Z,101267.75
2022-12-19T21:07:08.649Z,101274.81
2022-12-19T21:09:36.308Z,101270.56
2022-12-19T21:12:04.268Z,101270.66
2022-12-19T21:14:33.642Z,101272.44
2022-12-19T21:17:01.413Z,101264.75
2022-12-19T21:19:29.130Z,101271.59
2022-12-19T21:21:56.922Z,101269.72
2022-12-19T21:24:24.823Z,101265.31
2022-12-19T21:26:57.766Z,101259.13
2022-12-19T21:29:26.080Z,101269.66
2022-12-19T21:31:55.293Z,101256.66
2022-12-19T21:34:23.123Z,101260.25
2022-12-19T21:36:50.799Z,101272.06
2022-12-19T21:39:20.583Z,101265.22
2022-12-19T21:41:48.314Z,101277.34
2022-12-19T21:44:15.969Z,101264.28
2022-12-19T21:46:43.985Z,101268.72
2022-12-19T21:49:13.240Z,101277.44
2022-12-19T21:51:40.931Z,101271.34
2022-12-19T21:54:08.815Z,101274.91
2022-12-19T21:56:38.718Z,101264.38
2022-12-19T21:59:07.762Z,101264.38
2022-12-19T22:01:35.703Z,101265.22
2022-12-19T22:04:06.341Z,101270.28
2022-12-19T22:06:37.217Z,101260.59
2022-12-19T22:09:07.179Z,101263.13
2022-12-19T22:11:36.469Z,101260.59
2022-12-19T22:14:05.973Z,101260.59
2022-12-19T22:16:34.011Z,101252.72
2022-12-19T22:19:01.875Z,101265.13
2022-12-19T22:21:29.725Z,101255.72
2022-12-19T22:23:59.359Z,101259.88
2022-12-19T22:26:29.411Z,101249.22
2022-12-19T22:28:57.690Z,101240.59
2022-12-19T22:31:26.966Z,101248.38
2022-12-19T22:33:56.317Z,101251.75
2022-12-19T22:36:28.458Z,101246.31
2022-12-19T22:38:57.673Z,101242.94
2022-12-19T22:41:27.423Z,101235.81
2022-12-19T22:43:55.893Z,101228.81
2022-12-19T22:46:26.146Z,101234.84
2022-12-19T22:48:55.874Z,101232.00
2022-12-19T22:51:23.905Z,101224.00
2022-12-19T22:53:51.936Z,101215.84
2022-12-19T22:56:21.804Z,101215.63
2022-12-19T22:58:52.784Z,101213.00
2022-12-19T23:01:22.334Z,101225.97
2022-12-19T23:03:51.710Z,101219.47
2022-12-19T23:06:20.162Z,101228.03
2022-12-19T23:08:48.028Z,101225.19
2022-12-19T23:11:18.068Z,101217.09
2022-12-19T23:13:48.240Z,101217.19
2022-12-19T23:16:17.667Z,101216.88
2022-12-19T23:18:45.605Z,101222.16
2022-12-19T23:21:15.515Z,101219.53
2022-12-19T23:23:44.201Z,101206.34
2022-12-19T23:26:16.027Z,101203.72
2022-12-19T23:28:44.287Z,101194.88
2022-12-19T23:31:13.955Z,101194.97
2022-12-19T23:33:43.058Z,101198.47
2022-12-19T23:36:11.302Z,101195.81
2022-12-19T23:38:39.070Z,101204.56
2022-12-19T23:41:09.544Z,101198.47
2022-12-19T23:43:37.766Z,101195.72
2022-12-19T23:46:06.791Z,101192.25
2022-12-19T23:48:34.616Z,101190.56
2022-12-19T23:51:05.777Z,101186.97
2022-12-19T23:53:34.319Z,101182.66
2022-12-19T23:56:02.868Z,101187.91
2022-12-19T23:58:30.690Z,101188.13
